Time;durP1;ratioP1;P1;durP2;ratioP2;P2;SDS_P1;SDS_P2;PMS_P1;PMS_P2;Temp;Humidity;BMP_temperature;BMP_pressure;BME280_temperature;BME280_humidity;BME280_pressure;Samples;Min_cycle;Max_cycle;Signal;HPM_P1;HPM_P2
2021/12/05 00:24:10;;;;;;;14.10;12.60;;;;;;;12.55;69.59;100785.97;4971739;28;102223;-56
2021/12/05 00:26:40;;;;;;;15.50;12.77;;;;;;;12.55;69.69;100785.97;4966714;28;102204;-57
2021/12/05 01:04:15;;;;;;;13.38;12.05;;;;;;;12.52;69.68;100767.44;4954895;28;102094;-57
2021/12/05 01:12:19;;;;;;;14.23;12.73;;;;;;;12.52;69.30;100764.72;4953178;28;103900;-56
2021/12/05 01:14:59;;;;;;;13.40;12.00;;;;;;;12.51;69.84;100768.50;4955689;28;102460;-57
2021/12/05 01:17:39;;;;;;;13.73;12.32;;;;;;;12.51;69.82;100765.78;4949727;28;102090;-58
2021/12/05 01:20:10;;;;;;;14.25;12.63;;;;;;;12.51;69.79;100763.06;4954946;28;102350;-57
2021/12/05 01:22:43;;;;;;;13.48;12.10;;;;;;;12.50;69.40;100761.44;4951336;28;103683;-57
2021/12/05 01:27:39;;;;;;;13.65;11.68;;;;;;;12.50;69.51;100740.41;4954502;28;102496;-57
2021/12/05 01:30:16;;;;;;;14.88;13.02;;;;;;;12.50;69.77;100739.59;4951054;28;102226;-59
2021/12/05 01:33:02;;;;;;;13.95;12.45;;;;;;;12.49;69.67;100737.97;4948433;28;103078;-57
2021/12/05 01:36:03;;;;;;;12.95;11.55;;;;;;;12.49;69.63;100740.69;4956340;28;102357;-56
2021/12/05 01:56:42;;;;;;;14.27;12.70;;;;;;;12.48;69.53;100733.63;4954419;28;102163;-56
2021/12/05 02:34:25;;;;;;;13.93;12.45;;;;;;;12.47;69.86;100756.53;4953551;28;102161;-56
2021/12/05 02:41:52;;;;;;;14.65;13.07;;;;;;;12.47;69.35;100764.72;4954414;28;102176;-57
2021/12/05 02:44:22;;;;;;;14.80;13.27;;;;;;;12.46;69.69;100755.72;4956754;28;102849;-57
2021/12/05 02:46:57;;;;;;;14.02;12.63;;;;;;;12.46;69.62;100750.25;4957366;28;104020;-57
2021/12/05 02:49:25;;;;;;;16.20;13.70;;;;;;;12.46;69.55;100750.25;4946083;28;102036;-57
2021/12/05 02:52:00;;;;;;;14.25;12.75;;;;;;;12.46;69.33;100744.81;4945438;28;103784;-57
2021/12/05 02:54:29;;;;;;;15.45;13.75;;;;;;;12.45;69.70;100745.09;4952151;28;103938;-57
2021/12/05 02:56:56;;;;;;;15.70;13.40;;;;;;;12.47;69.62;100753.81;4952778;28;104469;-56
2021/12/05 03:02:11;;;;;;;15.05;13.38;;;;;;;12.46;69.89;100738.53;4950858;28;102366;-59
2021/12/05 03:04:43;;;;;;;15.23;13.15;;;;;;;12.46;69.67;100746.72;4947766;28;102117;-57
2021/12/05 03:07:11;;;;;;;15.35;13.65;;;;;;;12.46;69.51;100739.34;4953771;28;104099;-57
2021/12/05 03:09:41;;;;;;;15.13;13.65;;;;;;;12.46;69.59;100735.81;4945468;28;102447;-57
2021/12/05 03:12:16;;;;;;;13.25;11.90;;;;;;;12.46;69.79;100727.63;4948940;28;102406;-57
2021/12/05 03:14:43;;;;;;;15.13;13.45;;;;;;;12.45;69.70;100726.81;4974361;28;102222;-55
2021/12/05 03:17:10;;;;;;;14.43;12.93;;;;;;;12.45;69.64;100736.91;4973582;28;104034;-58
2021/12/05 03:19:36;;;;;;;14.77;13.07;;;;;;;12.47;69.80;100740.16;4968924;28;102293;-56
2021/12/05 03:22:03;;;;;;;14.77;13.18;;;;;;;12.45;69.59;100745.09;4971594;28;102183;-57
2021/12/05 03:24:31;;;;;;;14.82;13.23;;;;;;;12.45;69.71;100743.19;4972723;28;102467;-57
2021/12/05 03:26:58;;;;;;;14.75;13.20;;;;;;;12.46;69.79;100749.44;4968066;28;103912;-57
2021/12/05 03:29:25;;;;;;;13.85;12.45;;;;;;;12.45;69.68;100747.81;4968751;28;102121;-57
2021/12/05 03:31:54;;;;;;;15.27;13.75;;;;;;;12.45;69.61;100747.81;4972238;28;102731;-57
2021/12/05 03:34:22;;;;;;;15.95;13.70;;;;;;;12.45;69.71;100758.75;4972031;28;102534;-57
2021/12/05 03:36:51;;;;;;;15.65;13.90;;;;;;;12.45;69.60;100761.47;4977382;28;103985;-57
2021/12/05 03:39:18;;;;;;;;;;;;;;;12.44;69.66;100751.63;4973914;28;102315;-57
2021/12/05 03:41:47;;;;;;;17.85;14.27;;;;;;;12.44;69.70;100744.28;4974508;28;102395;-57
2021/12/05 03:44:16;;;;;;;16.40;14.73;;;;;;;12.45;69.78;100747.81;4973883;28;102241;-57
2021/12/05 03:46:44;;;;;;;15.80;14.13;;;;;;;12.44;69.96;100751.63;4964675;28;103923;-57
2021/12/05 03:49:12;;;;;;;16.13;13.73;;;;;;;12.44;69.81;100757.09;4973371;28;102441;-57
2021/12/05 03:51:42;;;;;;;14.95;12.75;;;;;;;12.43;69.62;100761.75;4972440;28;102544;-58
2021/12/05 03:54:09;;;;;;;14.52;12.98;;;;;;;12.45;69.76;100758.75;4968243;28;102175;-57
2021/12/05 03:56:36;;;;;;;15.27;13.68;;;;;;;12.43;69.58;100759.00;4972473;28;105942;-57
2021/12/05 03:59:07;;;;;;;16.33;14.50;;;;;;;12.45;69.76;100769.66;4971669;28;102564;-57
2021/12/05 04:01:34;;;;;;;17.48;14.52;;;;;;;12.45;69.67;100769.66;4973244;28;103617;-57
2021/12/05 04:04:00;;;;;;;16.40;14.25;;;;;;;12.45;69.70;100769.66;4973977;28;102366;-57
2021/12/05 04:06:27;;;;;;;15.73;14.05;;;;;;;12.45;69.50;100769.66;4976196;28;103718;-57
2021/12/05 04:08:56;;;;;;;15.30;13.70;;;;;;;12.45;69.54;100770.47;4969616;28;103966;-57
2021/12/05 04:11:27;;;;;;;;;;;;;;;12.43;69.45;100769.13;4972986;28;102709;-57
2021/12/05 04:13:53;;;;;;;16.90;13.60;;;;;;;12.45;69.75;100769.66;4975717;28;102582;-57
2021/12/05 04:16:22;;;;;;;15.27;13.68;;;;;;;12.45;69.70;100775.13;4974533;28;103227;-57
2021/12/05 04:18:49;;;;;;;;;;;;;;;12.45;69.51;100775.94;4969939;28;102162;-57
2021/12/05 04:21:16;;;;;;;15.95;13.77;;;;;;;12.45;69.83;100777.84;4971146;28;102097;-57
2021/12/05 04:23:44;;;;;;;15.88;14.18;;;;;;;12.44;69.78;100779.78;4977903;28;102147;-57
2021/12/05 04:26:10;;;;;;;15.35;13.52;;;;;;;12.45;69.84;100777.84;4972532;28;103876;-57
2021/12/05 04:28:38;;;;;;;15.90;14.27;;;;;;;12.45;69.68;100775.13;4969098;28;107538;-57
2021/12/05 04:31:09;;;;;;;15.75;13.75;;;;;;;12.45;69.64;100775.94;4976714;28;102050;-57
2021/12/05 04:33:39;;;;;;;15.20;13.60;;;;;;;12.45;69.50;100777.84;4968760;28;102476;-57
2021/12/05 04:36:07;;;;;;;16.35;14.65;;;;;;;12.45;69.68;100769.66;4972801;28;103896;-57
2021/12/05 04:38:34;;;;;;;15.98;14.20;;;;;;;12.46;69.45;100768.56;4980455;28;102223;-57
2021/12/05 04:41:02;;;;;;;15.38;13.75;;;;;;;12.46;69.93;100771.28;4975500;28;102127;-57
2021/12/05 04:43:36;;;;;;;15.70;13.33;;;;;;;12.46;69.41;100776.75;4978325;28;102648;-57
2021/12/05 04:46:03;;;;;;;15.15;13.40;;;;;;;12.44;69.75;100773.47;4975137;28;103902;-57
2021/12/05 04:48:29;;;;;;;17.05;14.57;;;;;;;12.43;69.46;100769.94;4973353;28;103992;-57
2021/12/05 04:50:58;;;;;;;15.52;13.82;;;;;;;12.45;69.44;100780.59;4963685;28;102090;-57
2021/12/05 04:53:27;;;;;;;15.73;14.03;;;;;;;12.45;69.65;100775.13;4969603;28;102253;-60
2021/12/05 04:55:54;;;;;;;14.52;13.00;;;;;;;12.43;69.67;100782.75;4974500;28;104081;-57
2021/12/05 04:58:20;;;;;;;15.77;13.82;;;;;;;12.43;69.62;100772.66;4971447;28;102252;-57
2021/12/05 05:00:47;;;;;;;15.55;13.93;;;;;;;12.43;69.84;100767.19;4969840;28;102211;-57
2021/12/05 05:03:16;;;;;;;15.65;13.65;;;;;;;12.43;69.74;100761.75;4976840;28;102815;-57
2021/12/05 05:06:19;;;;;;;14.68;13.05;;;;;;;12.43;69.70;100750.00;4970674;28;104348;-57
2021/12/05 05:08:39;;;;;;;16.10;13.80;;;;;;;12.43;69.55;100744.56;4969252;28;102436;-57
2021/12/05 05:11:08;;;;;;;14.95;13.35;;;;;;;12.44;69.44;100755.19;4974505;28;102349;-57
2021/12/05 05:13:36;;;;;;;15.00;13.40;;;;;;;12.43;69.68;100755.47;4972637;28;102253;-57
2021/12/05 05:16:06;;;;;;;16.55;14.15;;;;;;;12.44;69.50;100748.91;4971972;28;104051;-57
2021/12/05 05:18:51;;;;;;;16.00;14.30;;;;;;;12.44;69.98;100747.00;4974686;28;102678;-57
2021/12/05 05:27:17;;;;;;;15.98;14.38;;;;;;;12.43;69.69;100750.00;4973787;28;103754;-57
2021/12/05 05:43:30;;;;;;;15.75;13.82;;;;;;;12.43;69.60;100747.28;4975804;28;102183;-57
2021/12/05 05:46:05;;;;;;;16.48;13.65;;;;;;;12.42;69.78;100751.13;4974114;28;104784;-56
2021/12/05 05:51:06;;;;;;;17.08;13.40;;;;;;;12.42;69.77;100759.31;4973664;28;102245;-57
2021/12/05 05:53:34;;;;;;;14.60;13.10;;;;;;;12.43;69.64;100760.94;4974768;28;102526;-57
2021/12/05 05:56:03;;;;;;;17.33;14.45;;;;;;;12.42;69.61;100762.03;4976809;28;102497;-57
2021/12/05 05:58:42;;;;;;;;;;;;;;;12.43;69.62;100760.94;4966721;28;103909;-56
2021/12/05 06:01:19;;;;;;;15.80;13.63;;;;;;;12.42;69.45;100767.50;4969237;28;102205;-56
2021/12/05 06:03:46;;;;;;;16.23;14.23;;;;;;;12.43;69.79;100760.94;4972383;28;102326;-56
2021/12/05 06:06:16;;;;;;;17.58;14.35;;;;;;;12.42;69.73;100759.31;4975915;28;103071;-56
2021/12/05 06:08:43;;;;;;;17.38;14.25;;;;;;;12.42;69.65;100760.13;4971940;28;103945;-56
2021/12/05 06:11:13;;;;;;;17.10;14.02;;;;;;;12.42;69.75;100762.84;4973599;28;102403;-56
2021/12/05 06:13:40;;;;;;;919.70;116.30;;;;;;;12.42;69.62;100762.84;4979011;28;102029;-57
2021/12/05 06:16:09;;;;;;;;;;;;;;;12.43;69.72;100763.66;4975188;28;102598;-56
2021/12/05 06:18:38;;;;;;;21.60;14.93;;;;;;;12.43;69.80;100755.47;4973730;28;103944;-57
2021/12/05 06:21:06;;;;;;;16.93;13.53;;;;;;;12.42;70.00;100762.03;4966194;28;102173;-57
2021/12/05 06:23:33;;;;;;;16.33;13.77;;;;;;;12.42;69.66;100765.56;4969497;28;102435;-57
2021/12/05 06:26:01;;;;;;;16.90;13.68;;;;;;;12.42;69.78;100762.84;4954184;28;102060;-57
2021/12/05 06:28:40;;;;;;;16.92;13.50;;;;;;;12.43;69.69;100760.94;4953777;28;103870;-57
2021/12/05 06:41:59;;;;;;;17.60;15.02;;;;;;;12.42;69.54;100778.41;4958226;28;104062;-57
2021/12/05 06:47:23;;;;;;;15.45;13.23;;;;;;;12.43;69.75;100777.31;4942930;28;103518;-57
2021/12/05 06:49:49;;;;;;;17.00;13.82;;;;;;;12.43;69.75;100782.75;4958462;28;103860;-56
2021/12/05 06:52:16;;;;;;;17.52;13.90;;;;;;;12.43;69.85;100789.03;4973472;28;102432;-59
2021/12/05 06:54:43;;;;;;;16.48;14.75;;;;;;;12.43;69.94;100782.75;4973401;28;102282;-56
2021/12/05 06:57:10;;;;;;;17.95;14.45;;;;;;;12.43;69.96;100794.50;4976846;28;102591;-56
2021/12/05 06:59:39;;;;;;;20.98;14.68;;;;;;;12.45;69.72;100789.59;4972045;28;103922;-56
2021/12/05 07:02:07;;;;;;;15.98;14.13;;;;;;;12.45;69.77;100791.50;4969847;28;102243;-56
2021/12/05 07:07:23;;;;;;;17.58;14.63;;;;;;;12.43;69.52;100783.56;4975701;28;102605;-56
2021/12/05 07:09:51;;;;;;;16.40;14.32;;;;;;;12.43;69.80;100794.50;4972717;28;104029;-57
2021/12/05 07:20:02;;;;;;;18.17;14.63;;;;;;;12.43;69.57;100783.56;4964664;28;104056;-57
2021/12/05 07:22:39;;;;;;;16.23;14.07;;;;;;;12.45;69.80;100786.03;4970359;28;102573;-56
2021/12/05 07:25:28;;;;;;;16.83;14.40;;;;;;;12.45;70.08;100786.03;4966042;28;102503;-56
2021/12/05 07:42:03;;;;;;;16.40;14.25;;;;;;;12.45;69.90;100775.13;4975790;28;104597;-57
2021/12/05 07:44:30;;;;;;;17.58;15.35;;;;;;;12.46;69.64;100787.66;4974757;28;102070;-57
2021/12/05 07:46:58;;;;;;;16.13;14.32;;;;;;;12.46;69.72;100782.19;4967698;28;102622;-56
2021/12/05 07:49:25;;;;;;;17.83;15.00;;;;;;;12.46;69.83;100782.19;4977747;28;102300;-56
2021/12/05 07:51:51;;;;;;;17.75;15.07;;;;;;;12.46;69.72;100779.47;4971181;28;103904;-57
2021/12/05 07:54:34;;;;;;;17.35;15.55;;;;;;;12.46;69.90;100782.19;4970949;28;102036;-57
2021/12/05 08:15:58;;;;;;;19.80;16.45;;;;;;;12.46;69.93;100793.94;4971451;28;103958;-57
2021/12/05 08:18:27;;;;;;;19.05;17.00;;;;;;;12.47;69.66;100789.28;4968919;28;102912;-56
2021/12/05 08:20:55;;;;;;;22.88;18.30;;;;;;;12.46;69.41;100784.94;4980689;28;102637;-57
2021/12/05 08:23:23;;;;;;;21.00;17.80;;;;;;;12.45;69.95;100789.59;4969276;28;103781;-57
2021/12/05 08:25:58;;;;;;;20.50;17.77;;;;;;;12.46;69.79;100793.13;4965724;28;102457;-57
2021/12/05 08:31:14;;;;;;;18.98;16.77;;;;;;;12.45;70.17;100794.22;4966087;28;102528;-57
2021/12/05 08:33:57;;;;;;;20.52;17.25;;;;;;;12.46;69.72;100798.59;4973682;28;107602;-57
2021/12/05 09:20:32;;;;;;;15.55;12.02;;;;;;;12.20;69.35;100768.72;4975344;28;102196;-57
2021/12/05 09:28:34;;;;;;;15.07;12.10;;;;;;;12.10;68.84;100762.47;4962782;28;104058;-59
2021/12/05 09:30:49;;;;;;;17.10;11.93;;;;;;;12.07;68.79;100763.03;4969541;28;102123;-58
2021/12/05 09:39:29;;;;;;;15.13;11.65;;;;;;;11.97;68.17;100767.47;4969926;28;103765;-58
2021/12/05 10:36:16;;;;;;;8.93;7.65;;;;;;;11.73;68.19;100720.88;4971991;28;102207;-58
2021/12/05 10:38:50;;;;;;;11.27;8.27;;;;;;;11.73;68.28;100722.81;4973016;28;102441;-59
2021/12/05 10:44:02;;;;;;;12.60;8.68;;;;;;;11.75;68.34;100715.16;4970771;28;103906;-58
2021/12/05 10:46:30;;;;;;;10.65;7.70;;;;;;;11.75;68.35;100705.03;4971151;28;102275;-58
2021/12/05 10:49:02;;;;;;;10.38;8.40;;;;;;;11.76;68.59;100703.97;4968370;28;102022;-58
2021/12/05 10:51:37;;;;;;;9.13;8.13;;;;;;;11.76;68.29;100698.53;4966746;28;102415;-58
2021/12/05 10:54:05;;;;;;;9.90;8.02;;;;;;;11.78;68.38;100698.22;4965528;28;103746;-59
2021/12/05 10:56:33;;;;;;;11.43;8.73;;;;;;;11.79;68.24;100691.66;4961239;28;102316;-58
2021/12/05 10:59:08;;;;;;;13.20;8.67;;;;;;;11.80;68.59;100687.88;4974892;28;102149;-58
2021/12/05 11:01:37;;;;;;;10.27;8.45;;;;;;;11.80;68.36;100693.31;4963739;28;102212;-58
2021/12/05 11:04:06;;;;;;;9.77;8.18;;;;;;;11.82;68.12;100690.31;4969434;28;103897;-58
2021/12/05 11:06:50;;;;;;;;;;;;;;;11.83;68.18;100681.03;4976909;28;102209;-58
2021/12/05 11:09:22;;;;;;;10.63;8.35;;;;;;;11.83;68.16;100687.31;4976076;28;102230;-59
2021/12/05 11:11:52;;;;;;;13.60;8.82;;;;;;;11.83;68.38;100684.59;4977482;28;102698;-59
2021/12/05 11:14:22;;;;;;;10.35;8.45;;;;;;;11.85;68.40;100678.88;4975014;28;103935;-59
2021/12/05 11:16:53;;;;;;;11.35;8.95;;;;;;;11.85;68.54;100682.41;4967162;28;102363;-59
2021/12/05 11:19:22;;;;;;;10.75;8.95;;;;;;;11.86;68.53;100685.94;4969802;28;102509;-59
2021/12/05 11:21:55;;;;;;;11.77;9.00;;;;;;;11.86;68.70;100685.94;4964830;28;102658;-59
2021/12/05 11:24:27;;;;;;;11.07;8.98;;;;;;;11.87;68.16;100684.88;4970842;28;103702;-59
2021/12/05 11:27:19;;;;;;;10.98;8.93;;;;;;;11.88;68.45;100694.69;4966956;28;102124;-59
2021/12/05 11:30:00;;;;;;;9.85;8.07;;;;;;;11.88;68.47;100694.69;4972180;28;102329;-59
2021/12/05 11:32:35;;;;;;;11.30;9.02;;;;;;;11.89;68.25;100696.31;4964857;28;102489;-58
2021/12/05 11:35:18;;;;;;;12.10;9.02;;;;;;;11.89;68.29;100686.19;4975323;28;107891;-59
2021/12/05 11:37:50;;;;;;;11.15;8.73;;;;;;;11.89;68.55;100688.94;4966615;28;102343;-59
2021/12/05 11:40:17;;;;;;;10.85;8.30;;;;;;;11.90;68.50;100692.47;4969163;28;107177;-59
2021/12/05 11:42:52;;;;;;;12.20;8.13;;;;;;;11.91;68.51;100688.66;4976861;28;102343;-59
2021/12/05 11:45:19;;;;;;;11.85;8.82;;;;;;;11.92;68.60;100684.84;4974638;28;104086;-58
2021/12/05 11:47:46;;;;;;;10.17;8.60;;;;;;;11.93;68.21;100683.72;4972787;28;102072;-59
2021/12/05 11:50:18;;;;;;;12.82;8.85;;;;;;;11.92;68.30;100687.56;4968764;28;102534;-59
2021/12/05 11:52:48;;;;;;;9.95;8.32;;;;;;;11.93;68.91;100686.47;4970276;28;102043;-58
2021/12/05 11:55:21;;;;;;;10.82;8.70;;;;;;;11.92;68.71;100693.81;4972557;28;103894;-59
2021/12/05 11:57:48;;;;;;;12.20;9.00;;;;;;;11.94;68.29;100690.84;4973986;28;102446;-59
2021/12/05 12:00:17;;;;;;;10.60;8.68;;;;;;;11.93;68.30;100684.53;4974403;28;102353;-59
2021/12/05 12:02:47;;;;;;;10.93;8.60;;;;;;;11.95;68.75;100692.47;4976157;28;102415;-59
2021/12/05 12:05:18;;;;;;;9.95;8.57;;;;;;;11.95;68.84;100681.56;4974216;28;103920;-59
2021/12/05 12:07:46;;;;;;;9.20;8.20;;;;;;;11.95;68.54;100685.09;4971089;28;102276;-59
2021/12/05 12:10:17;;;;;;;9.88;8.40;;;;;;;11.96;68.19;100686.72;4973156;28;102205;-59
2021/12/05 12:12:50;;;;;;;12.05;8.75;;;;;;;11.96;68.33;100672.25;4975571;28;102226;-59
2021/12/05 12:15:18;;;;;;;10.40;8.07;;;;;;;11.97;68.38;100680.19;4969991;28;103959;-59
2021/12/05 12:17:48;;;;;;;12.20;8.55;;;;;;;11.97;68.82;100671.16;4972540;28;102196;-58
2021/12/05 12:20:19;;;;;;;10.38;8.32;;;;;;;11.97;68.53;100682.06;4974504;28;102117;-59
2021/12/05 12:22:46;;;;;;;10.45;8.18;;;;;;;11.98;68.35;100678.25;4973024;28;102326;-59
2021/12/05 12:25:17;;;;;;;9.57;8.25;;;;;;;11.98;68.37;100694.63;4965528;28;104161;-59
2021/12/05 12:27:45;;;;;;;12.18;8.85;;;;;;;11.99;68.38;100696.25;4971098;28;102478;-58
2021/12/05 12:30:15;;;;;;;11.98;9.27;;;;;;;12.00;68.47;100697.88;4974371;28;102169;-59
2021/12/05 12:32:45;;;;;;;10.38;8.93;;;;;;;11.99;68.73;100690.81;4975517;28;103128;-59
2021/12/05 12:35:16;;;;;;;12.23;9.35;;;;;;;12.00;68.70;100695.16;4974487;28;103989;-59
2021/12/05 12:37:58;;;;;;;10.93;9.27;;;;;;;12.00;68.42;100697.88;4954145;28;102160;-58
2021/12/05 12:40:37;;;;;;;11.77;9.38;;;;;;;12.01;68.78;100696.81;4976100;28;102451;-59
2021/12/05 12:43:04;;;;;;;10.60;8.05;;;;;;;12.01;68.54;100694.88;4974052;28;102327;-59
2021/12/05 12:45:37;;;;;;;10.95;8.75;;;;;;;12.02;68.64;100692.97;4979212;28;103980;-59
2021/12/05 12:48:11;;;;;;;10.32;8.90;;;;;;;12.02;68.48;100691.06;4978859;28;103132;-59
2021/12/05 12:50:51;;;;;;;10.93;8.43;;;;;;;12.03;68.78;100691.88;4975663;28;103603;-59
2021/12/05 12:53:21;;;;;;;10.75;8.75;;;;;;;12.02;68.42;100687.50;4974221;28;102663;-59
2021/12/05 12:55:55;;;;;;;9.38;8.13;;;;;;;12.03;68.66;100697.31;4977846;28;103910;-59
2021/12/05 12:58:45;;;;;;;10.07;7.88;;;;;;;12.03;69.00;100697.31;4975710;28;103397;-58
2021/12/05 13:01:20;;;;;;;9.85;8.07;;;;;;;12.04;68.53;100693.47;4975753;28;102148;-59
2021/12/05 13:12:50;;;;;;;11.18;8.60;;;;;;;12.06;68.76;100698.69;4976174;28;102222;-59
2021/12/05 13:15:27;;;;;;;10.43;8.10;;;;;;;12.06;68.95;100690.50;4964574;28;102363;-59
2021/12/05 13:17:57;;;;;;;11.13;8.77;;;;;;;12.05;68.50;100689.69;4968415;28;103588;-59
2021/12/05 13:20:27;;;;;;;9.18;8.07;;;;;;;12.06;68.52;100685.84;4956882;28;102215;-58
2021/12/05 13:23:14;;;;;;;;;;;;;;;12.06;68.69;100685.84;4950289;28;102694;-59
2021/12/05 13:26:06;;;;;;;10.40;7.65;;;;;;;12.06;69.05;100685.84;4949700;28;103704;-59
2021/12/05 13:28:36;;;;;;;11.05;8.15;;;;;;;12.07;68.71;100687.47;4948925;28;108289;-59
2021/12/05 13:31:35;;;;;;;8.95;7.80;;;;;;;12.07;68.93;100681.22;4949805;28;102725;-58
2021/12/05 13:34:39;;;;;;;10.82;8.32;;;;;;;12.08;68.98;100683.66;4946632;28;102467;-59
2021/12/05 13:37:31;;;;;;;9.93;8.73;;;;;;;12.08;68.86;100693.75;4937539;28;102255;-59
2021/12/05 13:40:08;;;;;;;10.60;7.95;;;;;;;12.08;69.20;100700.03;4949232;28;104128;-59
2021/12/05 13:42:45;;;;;;;10.52;7.93;;;;;;;12.08;68.67;100694.56;4950106;28;103590;-59
2021/12/05 13:45:31;;;;;;;9.27;8.00;;;;;;;12.08;68.92;100694.56;4956641;28;102460;-59
2021/12/05 13:48:17;;;;;;;10.45;8.27;;;;;;;12.09;68.57;100692.66;4974400;28;102634;-59
2021/12/05 13:50:48;;;;;;;10.20;7.97;;;;;;;12.11;68.64;100698.63;4975179;28;102624;-59
2021/12/05 13:53:32;;;;;;;9.27;7.80;;;;;;;12.10;68.78;100694.28;4968912;28;102350;-59
2021/12/05 13:56:06;;;;;;;9.20;7.85;;;;;;;12.10;68.84;100695.09;4951310;28;102149;-58
2021/12/05 13:58:53;;;;;;;9.02;7.43;;;;;;;12.10;69.07;100697.81;4956697;28;102628;-59
2021/12/05 14:01:31;;;;;;;11.23;7.90;;;;;;;12.11;68.77;100698.63;4954650;28;104257;-59
2021/12/05 14:04:07;;;;;;;9.27;8.00;;;;;;;12.11;68.96;100704.91;4955053;28;101964;-59
2021/12/05 14:06:53;;;;;;;10.23;7.80;;;;;;;12.10;68.82;100692.38;4945666;28;102483;-59
2021/12/05 14:09:26;;;;;;;8.90;7.47;;;;;;;12.12;69.21;100694.84;4956055;28;102584;-59
2021/12/05 14:11:58;;;;;;;9.48;8.05;;;;;;;12.12;69.11;100695.63;4946260;28;103874;-59
2021/12/05 14:14:34;;;;;;;8.05;7.07;;;;;;;12.11;68.91;100694.00;4954917;28;102132;-58
2021/12/05 14:17:03;;;;;;;8.45;7.57;;;;;;;12.12;68.92;100695.63;4940332;28;102120;-59
2021/12/05 14:19:34;;;;;;;9.73;7.82;;;;;;;12.11;68.72;100687.72;4950229;28;104703;-59
2021/12/05 14:22:04;;;;;;;9.82;7.65;;;;;;;12.12;69.23;100684.72;4941588;28;103116;-59
2021/12/05 14:24:34;;;;;;;9.45;8.05;;;;;;;12.12;69.06;100690.19;4952311;28;102538;-59
2021/12/05 14:27:04;;;;;;;10.50;8.20;;;;;;;12.11;68.89;100683.06;4951247;28;102107;-59
2021/12/05 14:29:35;;;;;;;8.48;7.57;;;;;;;12.12;69.25;100694.84;4952456;28;102180;-59
2021/12/05 14:32:04;;;;;;;9.85;8.50;;;;;;;12.13;68.85;100686.34;4948654;28;104363;-59
2021/12/05 14:34:31;;;;;;;9.80;8.35;;;;;;;12.13;68.99;100683.63;4952787;28;102509;-59
2021/12/05 14:37:01;;;;;;;8.95;7.78;;;;;;;12.13;69.14;100691.81;4951324;28;102688;-59
2021/12/05 14:39:30;;;;;;;9.63;8.35;;;;;;;12.12;69.07;100684.72;4948528;28;102238;-59
2021/12/05 14:42:00;;;;;;;10.23;8.05;;;;;;;12.14;69.03;100679.78;4946637;28;105296;-59
2021/12/05 14:44:26;;;;;;;;;;;;;;;12.15;69.08;100686.06;4948827;28;102558;-59
2021/12/05 14:46:58;;;;;;;9.90;8.52;;;;;;;12.14;68.86;100690.69;4948466;28;102156;-59
2021/12/05 14:49:26;;;;;;;7.93;6.90;;;;;;;12.15;69.17;100688.78;4953251;28;103033;-59
2021/12/05 14:51:54;;;;;;;9.48;7.95;;;;;;;12.15;69.19;100688.78;4947028;28;104758;-59
2021/12/05 14:54:25;;;;;;;9.43;8.07;;;;;;;12.15;69.03;100692.34;4940721;28;102398;-59
2021/12/05 14:56:56;;;;;;;9.55;8.52;;;;;;;12.16;68.92;100695.88;4939688;28;102895;-59
2021/12/05 14:59:22;;;;;;;11.23;9.32;;;;;;;12.16;69.01;100695.88;4956879;28;102228;-59
2021/12/05 15:01:53;;;;;;;11.95;9.73;;;;;;;12.17;69.04;100695.59;4970155;28;103929;-59
2021/12/05 15:04:26;;;;;;;11.07;9.60;;;;;;;12.17;69.22;100692.88;4961658;28;102084;-59
2021/12/05 15:06:52;;;;;;;11.40;10.02;;;;;;;12.18;69.14;100694.50;4942641;28;102518;-59
2021/12/05 15:09:23;;;;;;;12.88;10.50;;;;;;;12.17;69.32;100692.88;4945118;28;102534;-61
2021/12/05 15:11:57;;;;;;;14.68;12.00;;;;;;;12.18;69.05;100693.69;4950222;28;103859;-59
2021/12/05 15:14:25;;;;;;;15.10;12.45;;;;;;;12.18;69.00;100699.94;4949307;28;102392;-59
2021/12/05 15:16:59;;;;;;;16.40;14.10;;;;;;;12.18;69.12;100688.22;4950638;28;102510;-59
2021/12/05 15:19:27;;;;;;;18.25;15.00;;;;;;;12.19;69.24;100698.06;4946571;28;102737;-59
2021/12/05 15:21:55;;;;;;;16.00;13.70;;;;;;;12.18;69.20;100694.50;4951497;28;103980;-59
2021/12/05 15:24:26;;;;;;;15.80;13.88;;;;;;;12.18;69.03;100694.50;4950851;28;102336;-59
2021/12/05 15:26:53;;;;;;;16.92;13.38;;;;;;;12.19;69.13;100696.16;4972338;28;102861;-58
2021/12/05 15:29:20;;;;;;;18.17;13.68;;;;;;;12.18;69.45;100694.50;4974083;28;102713;-58
2021/12/05 15:31:46;;;;;;;17.75;13.63;;;;;;;12.19;68.92;100690.69;4958300;28;104128;-59
2021/12/05 15:34:31;;;;;;;15.83;13.23;;;;;;;12.19;69.24;100693.41;4973941;28;102543;-59
2021/12/05 15:37:05;;;;;;;14.93;13.30;;;;;;;12.19;69.13;100696.16;4965492;28;102228;-59
2021/12/05 15:39:31;;;;;;;15.15;12.70;;;;;;;12.19;69.30;100687.97;4967421;28;102123;-59
2021/12/05 15:42:00;;;;;;;14.50;12.93;;;;;;;12.19;69.08;100685.22;4962113;28;103900;-59
2021/12/05 17:06:09;;;;;;;18.00;12.20;;;;;;;12.11;69.72;100710.34;4964775;28;103533;-57
2021/12/05 17:08:40;;;;;;;18.35;12.20;;;;;;;12.11;69.77;100704.91;4934798;28;103235;-59
2021/12/05 17:11:09;;;;;;;16.17;11.15;;;;;;;12.13;69.62;100718.28;4942702;28;104805;-57
2021/12/05 17:13:37;;;;;;;155.75;22.00;;;;;;;12.13;69.90;100713.63;4954392;28;102218;-54
2021/12/05 17:16:07;;;;;;;18.25;10.93;;;;;;;12.13;69.33;100712.81;4952353;28;102151;-52
2021/12/05 17:23:43;;;;;;;14.43;8.57;;;;;;;12.14;69.67;100709.00;5003911;27;102335;-51
2021/12/05 17:26:15;;;;;;;26.80;8.38;;;;;;;12.13;69.30;100710.09;5002435;28;102272;-52
2021/12/05 17:28:44;;;;;;;12.20;5.78;;;;;;;12.12;69.74;100703.81;4987864;28;102867;-50
2021/12/05 17:31:13;;;;;;;7.95;5.90;;;;;;;12.11;69.19;100704.91;5002743;28;103863;-51
2021/12/05 17:33:42;;;;;;;8.63;5.25;;;;;;;12.11;69.82;100698.63;5007536;28;103278;-50
2021/12/05 17:36:19;;;;;;;8.50;4.90;;;;;;;12.11;69.26;100699.44;4995750;28;102212;-50
2021/12/05 17:38:49;;;;;;;18.90;6.18;;;;;;;12.11;69.06;100704.91;4997999;28;102326;-50
2021/12/05 17:41:16;;;;;;;5.40;4.32;;;;;;;12.10;69.49;100697.81;4998633;28;104757;-51
2021/12/05 17:43:43;;;;;;;6.25;5.00;;;;;;;12.10;69.55;100692.38;4997454;28;102698;-50
2021/12/05 17:46:09;;;;;;;6.40;5.00;;;;;;;12.12;69.27;100692.91;5006588;28;102788;-50
2021/12/05 17:48:36;;;;;;;5.47;4.88;;;;;;;12.10;69.91;100697.81;5013651;27;102536;-50
2021/12/05 17:51:05;;;;;;;6.22;4.70;;;;;;;12.10;69.23;100699.75;5001372;28;104053;-50
2021/12/05 17:53:34;;;;;;;6.20;4.80;;;;;;;12.11;69.59;100696.72;5000167;28;102153;-50
2021/12/05 17:56:11;;;;;;;5.00;4.20;;;;;;;12.11;69.86;100701.38;4986973;28;102345;-50
2021/12/05 18:03:57;;;;;;;22.75;5.82;;;;;;;12.11;69.52;100704.91;5007901;28;102223;-50
2021/12/05 18:06:24;;;;;;;10.57;5.22;;;;;;;12.12;69.71;100705.75;4968825;28;102257;-51
2021/12/05 18:08:51;;;;;;;6.70;4.28;;;;;;;12.12;69.77;100698.38;4974033;28;102129;-50
2021/12/05 18:11:22;;;;;;;7.05;4.45;;;;;;;12.13;69.06;100701.91;4999466;27;104034;-51
2021/12/05 18:13:54;;;;;;;5.97;4.35;;;;;;;12.13;69.49;100700.00;4994605;27;102385;-50
2021/12/05 18:16:23;;;;;;;5.32;4.82;;;;;;;12.12;69.48;100701.09;4988239;28;102337;-50
2021/12/05 18:18:51;;;;;;;5.70;4.50;;;;;;;12.13;69.73;100691.81;4974578;28;102284;-50
2021/12/05 18:21:18;;;;;;;5.47;4.90;;;;;;;12.14;69.60;100695.34;4956386;28;104050;-50
2021/12/05 18:23:45;;;;;;;5.43;4.85;;;;;;;12.13;69.25;100694.53;4945365;28;102507;-50
2021/12/05 18:26:14;;;;;;;;;;;;;;;12.13;69.48;100693.72;4966342;28;102236;-50
2021/12/05 18:28:42;;;;;;;5.10;4.60;;;;;;;12.13;69.35;100697.25;4963427;28;102225;-50
2021/12/05 18:31:16;;;;;;;6.53;4.72;;;;;;;12.14;69.41;100709.00;4949965;28;103978;-50